sensor_id;sensor_type;location;lat;lon;timestamp;temperature;humidity
18581;DHT22;9420;50.876;7.012;2023-05-15T00:00:58;13.10;1.00
18581;DHT22;9420;50.876;7.012;2023-05-15T00:03:26;13.00;1.00
18581;DHT22;9420;50.876;7.012;2023-05-15T00:05:53;13.20;1.00
18581;DHT22;9420;50.876;7.012;2023-05-15T00:08:20;13.40;1.00
18581;DHT22;9420;50.876;7.012;2023-05-15T00:10:48;13.40;1.00
18581;DHT22;9420;50.876;7.012;2023-05-15T00:13:16;13.20;1.00
18581;DHT22;9420;50.876;7.012;2023-05-15T00:15:43;13.00;1.00
18581;DHT22;9420;50.876;7.012;2023-05-15T00:18:10;13.10;1.00
18581;DHT22;9420;50.876;7.012;2023-05-15T00:20:37;13.00;1.00
18581;DHT22;9420;50.876;7.012;2023-05-15T00:23:04;12.80;1.00
18581;DHT22;9420;50.876;7.012;2023-05-15T00:25:31;13.10;1.00
18581;DHT22;9420;50.876;7.012;2023-05-15T00:27:59;13.10;1.00
18581;DHT22;9420;50.876;7.012;2023-05-15T00:30:27;13.20;1.00
18581;DHT22;9420;50.876;7.012;2023-05-15T00:32:54;13.10;1.00
18581;DHT22;9420;50.876;7.012;2023-05-15T00:35:21;13.10;1.00
18581;DHT22;9420;50.876;7.012;2023-05-15T00:37:48;13.20;1.00
18581;DHT22;9420;50.876;7.012;2023-05-15T00:40:20;13.30;99.90
18581;DHT22;9420;50.876;7.012;2023-05-15T00:42:50;13.30;99.90
18581;DHT22;9420;50.876;7.012;2023-05-15T00:45:21;13.20;99.90
18581;DHT22;9420;50.876;7.012;2023-05-15T00:47:50;13.20;1.00
18581;DHT22;9420;50.876;7.012;2023-05-15T00:50:18;13.20;1.00
18581;DHT22;9420;50.876;7.012;2023-05-15T00:52:47;13.30;1.00
18581;DHT22;9420;50.876;7.012;2023-05-15T00:55:14;13.30;1.00
18581;DHT22;9420;50.876;7.012;2023-05-15T00:57:43;13.30;1.00
18581;DHT22;9420;50.876;7.012;2023-05-15T01:00:12;13.30;1.00
18581;DHT22;9420;50.876;7.012;2023-05-15T01:02:43;13.30;11.60
18581;DHT22;9420;50.876;7.012;2023-05-15T01:05:10;13.30;99.90
18581;DHT22;9420;50.876;7.012;2023-05-15T01:07:42;13.30;99.90
18581;DHT22;9420;50.876;7.012;2023-05-15T01:10:15;13.30;99.90
18581;DHT22;9420;50.876;7.012;2023-05-15T01:12:45;13.40;99.90
18581;DHT22;9420;50.876;7.012;2023-05-15T01:15:16;13.40;1.00
18581;DHT22;9420;50.876;7.012;2023-05-15T01:17:45;13.40;1.00
18581;DHT22;9420;50.876;7.012;2023-05-15T01:20:13;13.30;1.00
18581;DHT22;9420;50.876;7.012;2023-05-15T01:22:53;13.30;1.00
18581;DHT22;9420;50.876;7.012;2023-05-15T01:29:06;13.30;99.90
18581;DHT22;9420;50.876;7.012;2023-05-15T01:31:41;13.20;99.90
18581;DHT22;9420;50.876;7.012;2023-05-15T01:34:11;13.10;99.90
18581;DHT22;9420;50.876;7.012;2023-05-15T01:36:46;13.10;99.90
18581;DHT22;9420;50.876;7.012;2023-05-15T01:39:20;13.10;1.00
18581;DHT22;9420;50.876;7.012;2023-05-15T01:41:59;13.10;1.00
18581;DHT22;9420;50.876;7.012;2023-05-15T01:44:33;13.20;1.00
18581;DHT22;9420;50.876;7.012;2023-05-15T01:47:06;13.20;1.00
18581;DHT22;9420;50.876;7.012;2023-05-15T01:49:38;13.20;1.00
18581;DHT22;9420;50.876;7.012;2023-05-15T01:52:12;13.20;1.00
18581;DHT22;9420;50.876;7.012;2023-05-15T01:54:44;13.10;1.00
18581;DHT22;9420;50.876;7.012;2023-05-15T01:57:13;13.00;99.90
18581;DHT22;9420;50.876;7.012;2023-05-15T01:59:43;12.90;99.90
18581;DHT22;9420;50.876;7.012;2023-05-15T02:02:12;12.90;1.00
18581;DHT22;9420;50.876;7.012;2023-05-15T02:04:42;12.80;1.00
18581;DHT22;9420;50.876;7.012;2023-05-15T02:07:11;12.90;99.90
18581;DHT22;9420;50.876;7.012;2023-05-15T02:09:40;13.00;99.90
18581;DHT22;9420;50.876;7.012;2023-05-15T02:12:09;13.20;99.90
18581;DHT22;9420;50.876;7.012;2023-05-15T02:14:38;13.20;99.90
18581;DHT22;9420;50.876;7.012;2023-05-15T02:17:08;13.20;99.90
18581;DHT22;9420;50.876;7.012;2023-05-15T02:19:35;13.30;1.00
18581;DHT22;9420;50.876;7.012;2023-05-15T02:22:02;13.30;99.90
18581;DHT22;9420;50.876;7.012;2023-05-15T02:24:29;13.30;99.90
18581;DHT22;9420;50.876;7.012;2023-05-15T02:27:01;13.40;1.00
18581;DHT22;9420;50.876;7.012;2023-05-15T02:29:40;13.50;1.00
18581;DHT22;9420;50.876;7.012;2023-05-15T02:32:21;13.50;1.00
18581;DHT22;9420;50.876;7.012;2023-05-15T02:35:02;13.60;1.00
18581;DHT22;9420;50.876;7.012;2023-05-15T02:37:41;13.60;1.00
18581;DHT22;9420;50.876;7.012;2023-05-15T02:40:14;13.60;99.90
18581;DHT22;9420;50.876;7.012;2023-05-15T02:42:43;13.60;99.90
18581;DHT22;9420;50.876;7.012;2023-05-15T02:45:12;13.60;99.90
18581;DHT22;9420;50.876;7.012;2023-05-15T02:47:41;13.60;99.90
18581;DHT22;9420;50.876;7.012;2023-05-15T02:50:09;13.60;1.00
18581;DHT22;9420;50.876;7.012;2023-05-15T02:52:37;13.60;1.00
18581;DHT22;9420;50.876;7.012;2023-05-15T02:55:06;13.70;1.00
18581;DHT22;9420;50.876;7.012;2023-05-15T02:57:35;13.70;1.00
18581;DHT22;9420;50.876;7.012;2023-05-15T03:00:02;13.70;1.00
18581;DHT22;9420;50.876;7.012;2023-05-15T03:02:31;13.70;1.60
18581;DHT22;9420;50.876;7.012;2023-05-15T03:05:00;13.70;1.00
18581;DHT22;9420;50.876;7.012;2023-05-15T03:07:27;13.70;1.00
18581;DHT22;9420;50.876;7.012;2023-05-15T03:09:54;13.70;1.00
18581;DHT22;9420;50.876;7.012;2023-05-15T03:12:20;13.80;1.00
18581;DHT22;9420;50.876;7.012;2023-05-15T03:14:47;13.70;1.00
18581;DHT22;9420;50.876;7.012;2023-05-15T03:17:14;13.70;1.00
18581;DHT22;9420;50.876;7.012;2023-05-15T03:19:41;13.80;1.00
18581;DHT22;9420;50.876;7.012;2023-05-15T03:22:10;13.70;1.00
18581;DHT22;9420;50.876;7.012;2023-05-15T03:24:37;13.70;1.00
18581;DHT22;9420;50.876;7.012;2023-05-15T03:27:04;13.70;1.00
18581;DHT22;9420;50.876;7.012;2023-05-15T03:29:31;13.70;99.90
18581;DHT22;9420;50.876;7.012;2023-05-15T03:31:59;13.60;99.90
18581;DHT22;9420;50.876;7.012;2023-05-15T03:34:26;13.60;99.90
18581;DHT22;9420;50.876;7.012;2023-05-15T03:36:53;13.60;44.40
18581;DHT22;9420;50.876;7.012;2023-05-15T03:39:21;13.70;99.90
18581;DHT22;9420;50.876;7.012;2023-05-15T03:41:48;13.70;99.90
18581;DHT22;9420;50.876;7.012;2023-05-15T03:44:15;13.70;24.30
18581;DHT22;9420;50.876;7.012;2023-05-15T03:46:42;13.70;1.00
18581;DHT22;9420;50.876;7.012;2023-05-15T03:49:09;13.70;1.00
18581;DHT22;9420;50.876;7.012;2023-05-15T03:51:36;13.60;1.00
18581;DHT22;9420;50.876;7.012;2023-05-15T03:54:04;13.60;1.00
18581;DHT22;9420;50.876;7.012;2023-05-15T03:56:32;13.60;1.00
18581;DHT22;9420;50.876;7.012;2023-05-15T03:58:59;13.60;1.00
18581;DHT22;9420;50.876;7.012;2023-05-15T04:01:27;13.60;1.00
18581;DHT22;9420;50.876;7.012;2023-05-15T04:03:54;13.70;1.00
18581;DHT22;9420;50.876;7.012;2023-05-15T04:06:21;13.60;1.00
18581;DHT22;9420;50.876;7.012;2023-05-15T04:08:48;13.60;1.00
18581;DHT22;9420;50.876;7.012;2023-05-15T04:11:15;13.60;1.00
18581;DHT22;9420;50.876;7.012;2023-05-15T04:13:44;13.60;99.90
18581;DHT22;9420;50.876;7.012;2023-05-15T04:16:11;13.60;99.90
18581;DHT22;9420;50.876;7.012;2023-05-15T04:18:38;13.60;99.90
18581;DHT22;9420;50.876;7.012;2023-05-15T04:21:05;13.50;97.00
18581;DHT22;9420;50.876;7.012;2023-05-15T04:23:33;13.60;99.90
18581;DHT22;9420;50.876;7.012;2023-05-15T04:26:00;13.60;29.60
18581;DHT22;9420;50.876;7.012;2023-05-15T04:28:27;13.50;1.00
18581;DHT22;9420;50.876;7.012;2023-05-15T04:30:55;13.60;13.70
18581;DHT22;9420;50.876;7.012;2023-05-15T04:33:23;13.60;1.00
18581;DHT22;9420;50.876;7.012;2023-05-15T04:35:50;13.50;1.00
18581;DHT22;9420;50.876;7.012;2023-05-15T04:38:17;13.50;1.00
18581;DHT22;9420;50.876;7.012;2023-05-15T04:40:45;13.50;1.00
18581;DHT22;9420;50.876;7.012;2023-05-15T04:43:12;13.50;99.90
18581;DHT22;9420;50.876;7.012;2023-05-15T04:45:39;13.50;99.90
18581;DHT22;9420;50.876;7.012;2023-05-15T04:48:07;13.50;99.90
18581;DHT22;9420;50.876;7.012;2023-05-15T04:50:34;13.50;31.90
18581;DHT22;9420;50.876;7.012;2023-05-15T04:53:01;13.50;1.00
18581;DHT22;9420;50.876;7.012;2023-05-15T04:55:28;13.50;1.00
18581;DHT22;9420;50.876;7.012;2023-05-15T04:57:56;13.40;1.00
18581;DHT22;9420;50.876;7.012;2023-05-15T05:00:23;13.40;1.00
18581;DHT22;9420;50.876;7.012;2023-05-15T05:02:50;13.40;1.00
18581;DHT22;9420;50.876;7.012;2023-05-15T05:05:19;13.40;1.00
18581;DHT22;9420;50.876;7.012;2023-05-15T05:07:46;13.40;1.00
18581;DHT22;9420;50.876;7.012;2023-05-15T05:10:16;13.40;1.00
18581;DHT22;9420;50.876;7.012;2023-05-15T05:12:43;13.40;1.00
18581;DHT22;9420;50.876;7.012;2023-05-15T05:15:10;13.50;1.00
18581;DHT22;9420;50.876;7.012;2023-05-15T05:17:37;13.40;99.90
18581;DHT22;9420;50.876;7.012;2023-05-15T05:20:05;13.50;99.90
18581;DHT22;9420;50.876;7.012;2023-05-15T05:22:36;13.50;99.90
18581;DHT22;9420;50.876;7.012;2023-05-15T05:25:05;13.40;99.90
18581;DHT22;9420;50.876;7.012;2023-05-15T05:27:33;13.40;99.90
18581;DHT22;9420;50.876;7.012;2023-05-15T05:30:00;13.40;99.90
18581;DHT22;9420;50.876;7.012;2023-05-15T05:32:27;13.40;99.90
18581;DHT22;9420;50.876;7.012;2023-05-15T05:34:54;13.40;99.90
18581;DHT22;9420;50.876;7.012;2023-05-15T05:37:21;13.30;99.90
18581;DHT22;9420;50.876;7.012;2023-05-15T05:39:50;13.30;99.90
18581;DHT22;9420;50.876;7.012;2023-05-15T05:42:17;13.30;99.90
18581;DHT22;9420;50.876;7.012;2023-05-15T05:44:44;13.20;99.90
18581;DHT22;9420;50.876;7.012;2023-05-15T05:47:11;13.30;99.90
18581;DHT22;9420;50.876;7.012;2023-05-15T05:49:38;13.40;99.90
18581;DHT22;9420;50.876;7.012;2023-05-15T05:52:08;13.50;99.90
18581;DHT22;9420;50.876;7.012;2023-05-15T05:54:35;13.50;99.90
18581;DHT22;9420;50.876;7.012;2023-05-15T05:57:04;13.50;79.70
18581;DHT22;9420;50.876;7.012;2023-05-15T05:59:32;13.40;66.60
18581;DHT22;9420;50.876;7.012;2023-05-15T06:01:59;13.40;1.00
18581;DHT22;9420;50.876;7.012;2023-05-15T06:04:28;13.40;99.90
18581;DHT22;9420;50.876;7.012;2023-05-15T06:06:57;13.40;14.20
18581;DHT22;9420;50.876;7.012;2023-05-15T06:09:24;13.50;71.60
18581;DHT22;9420;50.876;7.012;2023-05-15T06:11:51;13.60;7.30
18581;DHT22;9420;50.876;7.012;2023-05-15T06:14:20;13.60;1.00
18581;DHT22;9420;50.876;7.012;2023-05-15T06:16:47;13.70;1.00
18581;DHT22;9420;50.876;7.012;2023-05-15T06:19:15;13.60;1.00
18581;DHT22;9420;50.876;7.012;2023-05-15T06:21:42;13.70;1.00
18581;DHT22;9420;50.876;7.012;2023-05-15T06:24:09;13.60;1.00
18581;DHT22;9420;50.876;7.012;2023-05-15T06:26:36;13.60;1.00
18581;DHT22;9420;50.876;7.012;2023-05-15T06:29:03;13.60;1.00
18581;DHT22;9420;50.876;7.012;2023-05-15T06:31:32;13.60;1.00
18581;DHT22;9420;50.876;7.012;2023-05-15T06:33:59;13.60;1.00
18581;DHT22;9420;50.876;7.012;2023-05-15T06:36:26;13.40;1.00
18581;DHT22;9420;50.876;7.012;2023-05-15T06:38:53;13.40;1.00
18581;DHT22;9420;50.876;7.012;2023-05-15T06:41:20;13.30;1.00
18581;DHT22;9420;50.876;7.012;2023-05-15T06:43:47;13.30;1.00
18581;DHT22;9420;50.876;7.012;2023-05-15T06:46:14;13.20;1.00
18581;DHT22;9420;50.876;7.012;2023-05-15T06:48:45;13.40;1.00
18581;DHT22;9420;50.876;7.012;2023-05-15T06:51:12;13.40;1.00
18581;DHT22;9420;50.876;7.012;2023-05-15T06:53:39;13.30;1.00
18581;DHT22;9420;50.876;7.012;2023-05-15T06:56:08;13.30;1.00
18581;DHT22;9420;50.876;7.012;2023-05-15T06:58:36;13.30;1.00
18581;DHT22;9420;50.876;7.012;2023-05-15T07:01:03;13.30;1.00
18581;DHT22;9420;50.876;7.012;2023-05-15T07:03:31;13.20;1.00
18581;DHT22;9420;50.876;7.012;2023-05-15T07:06:00;13.30;99.90
18581;DHT22;9420;50.876;7.012;2023-05-15T07:08:27;13.20;99.90
18581;DHT22;9420;50.876;7.012;2023-05-15T07:10:54;13.20;1.00
18581;DHT22;9420;50.876;7.012;2023-05-15T07:13:22;13.20;99.90
18581;DHT22;9420;50.876;7.012;2023-05-15T07:15:49;13.10;99.90
18581;DHT22;9420;50.876;7.012;2023-05-15T07:18:17;13.10;99.90
18581;DHT22;9420;50.876;7.012;2023-05-15T07:20:44;13.10;99.90
18581;DHT22;9420;50.876;7.012;2023-05-15T07:23:12;13.10;1.00
18581;DHT22;9420;50.876;7.012;2023-05-15T07:25:40;13.10;99.90
18581;DHT22;9420;50.876;7.012;2023-05-15T07:28:07;13.20;99.90
18581;DHT22;9420;50.876;7.012;2023-05-15T07:30:35;13.30;99.90
18581;DHT22;9420;50.876;7.012;2023-05-15T07:33:02;13.50;65.50
18581;DHT22;9420;50.876;7.012;2023-05-15T07:35:29;13.40;53.40
18581;DHT22;9420;50.876;7.012;2023-05-15T07:37:57;13.40;99.90
18581;DHT22;9420;50.876;7.012;2023-05-15T07:40:25;13.30;99.90
18581;DHT22;9420;50.876;7.012;2023-05-15T07:42:52;13.30;99.90
18581;DHT22;9420;50.876;7.012;2023-05-15T07:45:19;13.20;99.90
18581;DHT22;9420;50.876;7.012;2023-05-15T07:47:48;13.10;99.90
18581;DHT22;9420;50.876;7.012;2023-05-15T07:50:16;13.10;99.90
18581;DHT22;9420;50.876;7.012;2023-05-15T07:52:43;13.30;99.90
18581;DHT22;9420;50.876;7.012;2023-05-15T07:55:11;13.30;8.30
18581;DHT22;9420;50.876;7.012;2023-05-15T07:57:40;13.50;63.50
18581;DHT22;9420;50.876;7.012;2023-05-15T08:00:08;13.30;1.00
18581;DHT22;9420;50.876;7.012;2023-05-15T08:02:38;13.30;1.00
18581;DHT22;9420;50.876;7.012;2023-05-15T08:05:06;13.30;1.00
18581;DHT22;9420;50.876;7.012;2023-05-15T08:07:34;13.20;1.00
18581;DHT22;9420;50.876;7.012;2023-05-15T08:10:01;13.20;1.00
18581;DHT22;9420;50.876;7.012;2023-05-15T08:12:30;13.20;1.00
18581;DHT22;9420;50.876;7.012;2023-05-15T08:14:59;13.30;1.00
18581;DHT22;9420;50.876;7.012;2023-05-15T08:17:26;13.20;1.00
18581;DHT22;9420;50.876;7.012;2023-05-15T08:19:54;13.30;1.00
18581;DHT22;9420;50.876;7.012;2023-05-15T08:22:21;13.40;1.00
18581;DHT22;9420;50.876;7.012;2023-05-15T08:24:48;13.50;1.00
18581;DHT22;9420;50.876;7.012;2023-05-15T08:27:15;13.50;1.00
18581;DHT22;9420;50.876;7.012;2023-05-15T08:29:42;13.30;1.00
18581;DHT22;9420;50.876;7.012;2023-05-15T08:32:12;13.20;1.00
18581;DHT22;9420;50.876;7.012;2023-05-15T08:34:39;13.20;1.00
18581;DHT22;9420;50.876;7.012;2023-05-15T08:37:06;13.30;1.00
18581;DHT22;9420;50.876;7.012;2023-05-15T08:39:34;13.30;1.00
18581;DHT22;9420;50.876;7.012;2023-05-15T08:42:06;13.40;1.00
18581;DHT22;9420;50.876;7.012;2023-05-15T08:44:36;13.40;1.00
18581;DHT22;9420;50.876;7.012;2023-05-15T08:47:05;13.40;1.00
18581;DHT22;9420;50.876;7.012;2023-05-15T08:49:38;13.40;1.00
18581;DHT22;9420;50.876;7.012;2023-05-15T08:52:14;13.60;1.00
18581;DHT22;9420;50.876;7.012;2023-05-15T08:54:42;13.90;1.00
18581;DHT22;9420;50.876;7.012;2023-05-15T08:57:09;14.20;99.90
18581;DHT22;9420;50.876;7.012;2023-05-15T08:59:36;14.10;99.90
18581;DHT22;9420;50.876;7.012;2023-05-15T09:02:05;14.10;99.90
18581;DHT22;9420;50.876;7.012;2023-05-15T09:04:34;14.00;50.00
18581;DHT22;9420;50.876;7.012;2023-05-15T09:07:01;14.10;99.90
18581;DHT22;9420;50.876;7.012;2023-05-15T09:09:31;14.20;98.70
18581;DHT22;9420;50.876;7.012;2023-05-15T09:11:59;14.30;99.90
18581;DHT22;9420;50.876;7.012;2023-05-15T09:14:27;14.60;1.00
18581;DHT22;9420;50.876;7.012;2023-05-15T09:16:54;14.30;1.00
18581;DHT22;9420;50.876;7.012;2023-05-15T09:19:21;14.10;1.00
18581;DHT22;9420;50.876;7.012;2023-05-15T09:21:50;14.50;1.00
18581;DHT22;9420;50.876;7.012;2023-05-15T09:24:19;14.50;1.00
18581;DHT22;9420;50.876;7.012;2023-05-15T09:27:00;14.60;1.00
18581;DHT22;9420;50.876;7.012;2023-05-15T09:29:30;14.90;1.00
18581;DHT22;9420;50.876;7.012;2023-05-15T09:32:01;15.00;99.90
18581;DHT22;9420;50.876;7.012;2023-05-15T09:34:30;15.90;99.90
18581;DHT22;9420;50.876;7.012;2023-05-15T09:37:02;16.40;99.90
18581;DHT22;9420;50.876;7.012;2023-05-15T09:39:31;16.80;1.00
18581;DHT22;9420;50.876;7.012;2023-05-15T09:42:16;16.70;1.00
18581;DHT22;9420;50.876;7.012;2023-05-15T09:44:44;16.00;1.00
18581;DHT22;9420;50.876;7.012;2023-05-15T09:47:13;16.10;1.00
18581;DHT22;9420;50.876;7.012;2023-05-15T09:49:43;16.50;1.00
18581;DHT22;9420;50.876;7.012;2023-05-15T09:52:15;17.50;1.00
18581;DHT22;9420;50.876;7.012;2023-05-15T09:54:44;17.90;1.00
18581;DHT22;9420;50.876;7.012;2023-05-15T09:57:13;18.40;1.00
18581;DHT22;9420;50.876;7.012;2023-05-15T09:59:44;18.20;1.00
18581;DHT22;9420;50.876;7.012;2023-05-15T10:02:13;18.50;1.00
18581;DHT22;9420;50.876;7.012;2023-05-15T10:04:54;18.30;1.00
18581;DHT22;9420;50.876;7.012;2023-05-15T10:07:28;18.50;99.90
18581;DHT22;9420;50.876;7.012;2023-05-15T10:09:56;18.30;99.90
18581;DHT22;9420;50.876;7.012;2023-05-15T10:12:24;17.90;99.90
18581;DHT22;9420;50.876;7.012;2023-05-15T10:14:53;17.60;99.90
18581;DHT22;9420;50.876;7.012;2023-05-15T10:17:23;17.50;99.90
18581;DHT22;9420;50.876;7.012;2023-05-15T10:19:51;17.50;99.90
18581;DHT22;9420;50.876;7.012;2023-05-15T10:22:21;17.40;99.90
18581;DHT22;9420;50.876;7.012;2023-05-15T10:24:57;17.80;99.90
18581;DHT22;9420;50.876;7.012;2023-05-15T10:27:29;17.60;99.90
18581;DHT22;9420;50.876;7.012;2023-05-15T10:30:00;18.10;99.90
18581;DHT22;9420;50.876;7.012;2023-05-15T10:32:30;18.60;99.90
18581;DHT22;9420;50.876;7.012;2023-05-15T10:34:59;18.90;99.90
18581;DHT22;9420;50.876;7.012;2023-05-15T10:37:27;19.10;99.90
18581;DHT22;9420;50.876;7.012;2023-05-15T10:39:56;18.80;53.80
18581;DHT22;9420;50.876;7.012;2023-05-15T10:42:25;19.50;62.00
18581;DHT22;9420;50.876;7.012;2023-05-15T10:44:56;19.80;1.00
18581;DHT22;9420;50.876;7.012;2023-05-15T10:47:28;19.60;1.00
18581;DHT22;9420;50.876;7.012;2023-05-15T10:50:00;19.90;1.00
18581;DHT22;9420;50.876;7.012;2023-05-15T10:52:29;20.80;1.00
18581;DHT22;9420;50.876;7.012;2023-05-15T10:54:58;20.90;1.00
18581;DHT22;9420;50.876;7.012;2023-05-15T10:57:28;21.70;1.00
18581;DHT22;9420;50.876;7.012;2023-05-15T10:59:55;22.10;1.00
18581;DHT22;9420;50.876;7.012;2023-05-15T11:02:25;21.80;1.00
18581;DHT22;9420;50.876;7.012;2023-05-15T11:04:55;21.70;1.00
18581;DHT22;9420;50.876;7.012;2023-05-15T11:07:23;21.90;1.00
18581;DHT22;9420;50.876;7.012;2023-05-15T11:09:51;22.80;1.00
18581;DHT22;9420;50.876;7.012;2023-05-15T11:12:22;22.90;1.00
18581;DHT22;9420;50.876;7.012;2023-05-15T11:15:17;22.70;1.00
18581;DHT22;9420;50.876;7.012;2023-05-15T11:18:00;22.00;1.00
18581;DHT22;9420;50.876;7.012;2023-05-15T11:20:38;22.50;1.00
18581;DHT22;9420;50.876;7.012;2023-05-15T11:23:05;22.10;1.00
18581;DHT22;9420;50.876;7.012;2023-05-15T11:25:34;22.50;1.00
18581;DHT22;9420;50.876;7.012;2023-05-15T11:28:04;22.60;1.00
18581;DHT22;9420;50.876;7.012;2023-05-15T11:30:36;23.60;1.00
18581;DHT22;9420;50.876;7.012;2023-05-15T11:33:05;23.50;1.00
18581;DHT22;9420;50.876;7.012;2023-05-15T11:35:38;23.10;99.90
18581;DHT22;9420;50.876;7.012;2023-05-15T11:38:13;23.20;99.90
18581;DHT22;9420;50.876;7.012;2023-05-15T11:40:45;24.00;99.90
18581;DHT22;9420;50.876;7.012;2023-05-15T11:43:19;24.20;99.90
18581;DHT22;9420;50.876;7.012;2023-05-15T11:45:50;25.20;99.90
18581;DHT22;9420;50.876;7.012;2023-05-15T11:48:21;25.60;99.90
18581;DHT22;9420;50.876;7.012;2023-05-15T11:50:49;25.60;99.90
18581;DHT22;9420;50.876;7.012;2023-05-15T11:53:18;24.10;99.90
18581;DHT22;9420;50.876;7.012;2023-05-15T11:55:47;23.30;99.90
18581;DHT22;9420;50.876;7.012;2023-05-15T11:58:15;23.30;99.90
18581;DHT22;9420;50.876;7.012;2023-05-15T12:00:47;23.80;99.90
18581;DHT22;9420;50.876;7.012;2023-05-15T12:03:17;23.80;99.90
18581;DHT22;9420;50.876;7.012;2023-05-15T12:05:49;23.00;99.90
18581;DHT22;9420;50.876;7.012;2023-05-15T12:08:19;23.20;99.90
18581;DHT22;9420;50.876;7.012;2023-05-15T12:10:47;24.00;99.90
18581;DHT22;9420;50.876;7.012;2023-05-15T12:13:16;23.80;99.90
18581;DHT22;9420;50.876;7.012;2023-05-15T12:15:45;24.60;99.90
18581;DHT22;9420;50.876;7.012;2023-05-15T12:18:13;24.50;99.90
18581;DHT22;9420;50.876;7.012;2023-05-15T12:20:41;24.40;99.90
18581;DHT22;9420;50.876;7.012;2023-05-15T12:23:09;23.60;99.90
18581;DHT22;9420;50.876;7.012;2023-05-15T12:25:37;24.20;99.90
18581;DHT22;9420;50.876;7.012;2023-05-15T12:28:04;25.40;99.90
18581;DHT22;9420;50.876;7.012;2023-05-15T12:30:32;25.80;99.90
18581;DHT22;9420;50.876;7.012;2023-05-15T12:33:03;25.40;99.90
18581;DHT22;9420;50.876;7.012;2023-05-15T12:35:32;25.50;99.90
18581;DHT22;9420;50.876;7.012;2023-05-15T12:38:01;26.40;99.90
18581;DHT22;9420;50.876;7.012;2023-05-15T12:40:29;23.90;99.90
18581;DHT22;9420;50.876;7.012;2023-05-15T12:43:03;23.80;99.90
18581;DHT22;9420;50.876;7.012;2023-05-15T12:45:31;24.40;99.90
18581;DHT22;9420;50.876;7.012;2023-05-15T12:48:03;25.10;99.90
18581;DHT22;9420;50.876;7.012;2023-05-15T12:50:33;26.50;99.90
18581;DHT22;9420;50.876;7.012;2023-05-15T12:53:03;25.80;69.90
18581;DHT22;9420;50.876;7.012;2023-05-15T12:55:32;26.60;27.20
18581;DHT22;9420;50.876;7.012;2023-05-15T12:58:03;26.80;16.30
18581;DHT22;9420;50.876;7.012;2023-05-15T13:00:33;26.40;62.50
18581;DHT22;9420;50.876;7.012;2023-05-15T13:03:03;24.70;4.90
18581;DHT22;9420;50.876;7.012;2023-05-15T13:05:33;25.10;40.00
18581;DHT22;9420;50.876;7.012;2023-05-15T13:08:02;25.50;16.10
18581;DHT22;9420;50.876;7.012;2023-05-15T13:10:32;25.30;1.00
18581;DHT22;9420;50.876;7.012;2023-05-15T13:13:00;25.40;4.30
18581;DHT22;9420;50.876;7.012;2023-05-15T13:15:29;25.00;1.00
18581;DHT22;9420;50.876;7.012;2023-05-15T13:18:01;26.00;1.00
18581;DHT22;9420;50.876;7.012;2023-05-15T13:20:33;25.30;1.00
18581;DHT22;9420;50.876;7.012;2023-05-15T13:23:01;26.30;1.00
18581;DHT22;9420;50.876;7.012;2023-05-15T13:25:29;26.10;1.00
18581;DHT22;9420;50.876;7.012;2023-05-15T13:27:58;26.50;1.00
18581;DHT22;9420;50.876;7.012;2023-05-15T13:30:27;26.00;1.00
18581;DHT22;9420;50.876;7.012;2023-05-15T13:32:54;27.10;1.00
18581;DHT22;9420;50.876;7.012;2023-05-15T13:35:23;27.30;1.00
18581;DHT22;9420;50.876;7.012;2023-05-15T13:37:50;25.90;1.00
18581;DHT22;9420;50.876;7.012;2023-05-15T13:40:17;25.50;1.00
18581;DHT22;9420;50.876;7.012;2023-05-15T13:42:44;24.40;1.00
18581;DHT22;9420;50.876;7.012;2023-05-15T13:45:13;23.50;1.00
18581;DHT22;9420;50.876;7.012;2023-05-15T13:47:41;24.60;1.00
18581;DHT22;9420;50.876;7.012;2023-05-15T13:50:11;24.60;1.00
18581;DHT22;9420;50.876;7.012;2023-05-15T13:52:42;24.70;1.00
18581;DHT22;9420;50.876;7.012;2023-05-15T13:55:10;25.20;1.00
18581;DHT22;9420;50.876;7.012;2023-05-15T13:57:38;26.00;1.00
18581;DHT22;9420;50.876;7.012;2023-05-15T14:00:08;27.50;1.00
18581;DHT22;9420;50.876;7.012;2023-05-15T14:02:37;25.60;1.00
18581;DHT22;9420;50.876;7.012;2023-05-15T14:05:05;25.60;1.00
18581;DHT22;9420;50.876;7.012;2023-05-15T14:07:33;24.90;1.00
18581;DHT22;9420;50.876;7.012;2023-05-15T14:10:02;24.90;1.00
18581;DHT22;9420;50.876;7.012;2023-05-15T14:12:30;25.30;1.00
18581;DHT22;9420;50.876;7.012;2023-05-15T14:14:58;24.20;1.00
18581;DHT22;9420;50.876;7.012;2023-05-15T14:17:25;23.90;1.00
18581;DHT22;9420;50.876;7.012;2023-05-15T14:19:53;24.30;1.00
18581;DHT22;9420;50.876;7.012;2023-05-15T14:22:20;25.40;1.00
18581;DHT22;9420;50.876;7.012;2023-05-15T14:24:49;26.30;1.00
18581;DHT22;9420;50.876;7.012;2023-05-15T14:27:17;27.20;1.00
18581;DHT22;9420;50.876;7.012;2023-05-15T14:29:44;25.40;1.00
18581;DHT22;9420;50.876;7.012;2023-05-15T14:32:13;26.80;1.00
18581;DHT22;9420;50.876;7.012;2023-05-15T14:34:40;27.20;1.00
18581;DHT22;9420;50.876;7.012;2023-05-15T14:37:07;24.90;1.00
18581;DHT22;9420;50.876;7.012;2023-05-15T14:39:34;24.10;1.00
18581;DHT22;9420;50.876;7.012;2023-05-15T14:42:01;24.40;1.00
18581;DHT22;9420;50.876;7.012;2023-05-15T14:44:29;24.40;1.00
18581;DHT22;9420;50.876;7.012;2023-05-15T14:47:06;24.50;1.00
18581;DHT22;9420;50.876;7.012;2023-05-15T14:49:35;24.40;1.00
18581;DHT22;9420;50.876;7.012;2023-05-15T14:52:04;22.90;1.00
18581;DHT22;9420;50.876;7.012;2023-05-15T14:54:32;22.20;1.00
18581;DHT22;9420;50.876;7.012;2023-05-15T14:57:00;21.90;1.00
18581;DHT22;9420;50.876;7.012;2023-05-15T14:59:29;22.40;1.00
18581;DHT22;9420;50.876;7.012;2023-05-15T15:01:56;22.80;1.00
18581;DHT22;9420;50.876;7.012;2023-05-15T15:04:23;22.90;1.00
18581;DHT22;9420;50.876;7.012;2023-05-15T15:06:51;23.10;1.00
18581;DHT22;9420;50.876;7.012;2023-05-15T15:09:21;23.90;1.00
18581;DHT22;9420;50.876;7.012;2023-05-15T15:11:48;23.40;1.00
18581;DHT22;9420;50.876;7.012;2023-05-15T15:14:15;22.40;1.00
18581;DHT22;9420;50.876;7.012;2023-05-15T15:16:44;21.90;1.00
18581;DHT22;9420;50.876;7.012;2023-05-15T15:19:11;21.30;1.00
18581;DHT22;9420;50.876;7.012;2023-05-15T15:21:38;21.00;1.00
18581;DHT22;9420;50.876;7.012;2023-05-15T15:24:06;20.80;1.00
18581;DHT22;9420;50.876;7.012;2023-05-15T15:26:33;20.50;1.00
18581;DHT22;9420;50.876;7.012;2023-05-15T15:29:00;21.20;1.00
18581;DHT22;9420;50.876;7.012;2023-05-15T15:31:27;20.60;1.00
18581;DHT22;9420;50.876;7.012;2023-05-15T15:33:56;20.20;1.00
18581;DHT22;9420;50.876;7.012;2023-05-15T15:36:24;20.60;1.00
18581;DHT22;9420;50.876;7.012;2023-05-15T15:38:51;21.40;1.00
18581;DHT22;9420;50.876;7.012;2023-05-15T15:41:18;21.80;1.00
18581;DHT22;9420;50.876;7.012;2023-05-15T15:43:48;21.70;1.00
18581;DHT22;9420;50.876;7.012;2023-05-15T15:46:15;21.50;1.00
18581;DHT22;9420;50.876;7.012;2023-05-15T15:48:42;21.80;1.00
18581;DHT22;9420;50.876;7.012;2023-05-15T15:51:10;22.10;1.00
18581;DHT22;9420;50.876;7.012;2023-05-15T15:53:37;21.50;1.00
18581;DHT22;9420;50.876;7.012;2023-05-15T15:56:05;21.40;1.00
18581;DHT22;9420;50.876;7.012;2023-05-15T15:58:32;21.50;1.00
18581;DHT22;9420;50.876;7.012;2023-05-15T16:00:59;21.40;1.00
18581;DHT22;9420;50.876;7.012;2023-05-15T16:03:26;21.00;1.00
18581;DHT22;9420;50.876;7.012;2023-05-15T16:05:53;20.50;1.00
18581;DHT22;9420;50.876;7.012;2023-05-15T16:08:22;20.20;1.00